Kezdőlap
METAR-TAF:

METAR-TAF

Repülőterek :

Majuro, Marshall-szigetek

földrajzi szélesség: 07-04N, földrajzi hosszúság: 171-17E, magasság: 2 m

Jelenlegi meteorológiai megfigyelések

A jelentés 17 órával és 14 perccel ezelõtt készült, 01:54 UTC
Északkeleti szél 8 kt
Hőmérséklet 31°C
Páratartalom 71%
Légköri nyomás 1011 hPa
Látótávolság: 24.1 km
Kevés felhő 1500 lábon
Szórványos felhőzet 5000 lábon
Szakadozott felhőzet 12000 lábon
Borult 30000 lábon

METAR: PKMJ 190154Z 04008KT 15SM FEW015 SCT050 BKN120 OVC300 31/25 A2984 RMK LAST

Idő: 07:08 (19:08 UTC)

Előrejelzés

A jelentés 1 órával és 48 perccel ezelõtt készült, 17:20 UTC
Az előrejelzés 19-én 18 óra UTC és 20-én 18 óra UTC között érvényes
Keleti szél 11 kt
Látótávolság: 10 km
Kevés felhő 1500 lábon
Szórványos felhőzet 5000 lábon
Szórványos felhőzet 11000 lábon
Záporok a közelben

TAF: PKMJ 191720Z 1918/2018 09011KT P6SM VCSH FEW015 SCT050 SCT110

Meteorológiai megfigyelések és előrejelzések több, mint 4000 repülőtéren (METAR és TAF jelentéseket).

A térképen piros és sárga pontok jelzik az elérhető meteorológiai állomásokat.

Mozgassa az egeret a pont fölött, hogy megjelenjen az állomás neve.

Azután kattintson az időjárási megfigyelések és előrejelzések megtekintéséhez.

A térkép megváltoztatása: kattintson a fekete keresztel jelölt zöld gombra ráközelítéshez, a vonallal jelölt zöld gombra távolításhoz, vagy a zöld nyilakra a szomszédos térképek eléréséhez.


METAR-TAF: